Time;durP1;ratioP1;P1;durP2;ratioP2;P2;SDS_P1;SDS_P2;PMS_P1;PMS_P2;Temp;Humidity;BMP_temperature;BMP_pressure;BME280_temperature;BME280_humidity;BME280_pressure;Samples;Min_cycle;Max_cycle;Signal;HPM_P1;HPM_P2
2021/05/07 00:08:07;;;;;;;23.70;15.07;;;5.80;99.90;;;;;;6713742;88;21087;-76
2021/05/07 00:18:07;;;;;;;29.42;16.87;;;5.80;99.90;;;;;;6716242;88;20705;-77
2021/05/07 00:28:10;;;;;;;27.83;16.27;;;5.80;99.90;;;;;;6716318;88;20667;-77
2021/05/07 00:38:11;;;;;;;29.55;17.42;;;5.80;99.90;;;;;;6716529;88;20803;-74
2021/05/07 00:48:17;;;;;;;27.45;16.48;;;5.60;99.90;;;;;;6715358;88;20190;-75
2021/05/07 00:58:17;;;;;;;26.60;16.90;;;5.50;99.90;;;;;;6716632;88;20222;-74
2021/05/07 01:08:18;;;;;;;27.05;15.95;;;5.40;99.90;;;;;;6717320;88;20288;-75
2021/05/07 01:18:19;;;;;;;27.75;16.92;;;5.40;99.90;;;;;;6717374;88;20178;-75
2021/05/07 01:28:19;;;;;;;30.40;17.77;;;5.30;99.90;;;;;;6713932;88;20291;-74
2021/05/07 01:38:20;;;;;;;30.52;17.15;;;5.20;99.90;;;;;;6721883;88;20185;-74
2021/05/07 01:48:21;;;;;;;28.77;17.17;;;5.00;99.90;;;;;;6728600;88;20316;-74
2021/05/07 01:58:21;;;;;;;29.25;17.42;;;5.00;99.90;;;;;;6723164;88;20198;-75
2021/05/07 02:08:22;;;;;;;30.60;17.02;;;5.10;99.90;;;;;;6731443;88;20239;-75
2021/05/07 02:18:25;;;;;;;31.27;17.37;;;4.80;99.90;;;;;;6719075;88;20525;-76
2021/05/07 02:28:25;;;;;;;30.30;16.50;;;4.70;99.90;;;;;;6717586;88;21226;-74
2021/05/07 02:38:26;;;;;;;33.25;17.55;;;4.90;99.90;;;;;;6718210;88;20313;-75
2021/05/07 02:48:27;;;;;;;27.58;15.63;;;4.80;99.90;;;;;;6719078;88;20186;-74
2021/05/07 02:58:27;;;;;;;29.25;15.93;;;4.80;99.90;;;;;;6722330;88;20337;-75
2021/05/07 03:08:28;;;;;;;34.05;17.00;;;4.90;99.90;;;;;;6718942;88;20345;-75
2021/05/07 03:18:28;;;;;;;31.17;16.23;;;4.90;99.90;;;;;;6717896;88;20239;-74
2021/05/07 03:28:29;;;;;;;33.10;17.63;;;4.90;99.90;;;;;;6718069;88;20219;-75
2021/05/07 03:38:30;;;;;;;32.05;17.17;;;4.80;99.90;;;;;;6717586;88;20511;-74
2021/05/07 03:48:30;;;;;;;33.92;17.83;;;4.60;99.90;;;;;;6718127;88;20251;-75
2021/05/07 03:58:31;;;;;;;30.52;16.25;;;4.80;99.90;;;;;;6717867;88;20228;-74
2021/05/07 04:08:34;;;;;;;32.85;16.85;;;4.90;99.90;;;;;;6718149;88;20693;-74
2021/05/07 04:18:36;;;;;;;32.38;17.62;;;4.80;99.90;;;;;;6718260;88;20202;-74
2021/05/07 04:28:36;;;;;;;30.02;16.67;;;4.80;99.90;;;;;;6716958;88;20198;-76
2021/05/07 04:38:58;;;;;;;31.48;17.08;;;4.80;99.90;;;;;;6706986;77;20703;-77
2021/05/07 04:48:58;;;;;;;33.30;17.48;;;4.80;99.90;;;;;;6702624;88;20405;-76
2021/05/07 04:58:59;;;;;;;27.48;13.80;;;4.70;99.90;;;;;;6703889;88;20602;-77
2021/05/07 05:09:00;;;;;;;32.35;16.23;;;4.80;99.90;;;;;;6702659;88;20220;-76
2021/05/07 05:19:00;;;;;;;35.30;17.83;;;4.80;99.90;;;;;;6703698;88;20620;-77
2021/05/07 05:29:01;;;;;;;29.00;15.90;;;5.00;99.90;;;;;;6703820;88;20305;-76
2021/05/07 05:39:01;;;;;;;33.58;16.02;;;5.10;99.90;;;;;;6702384;88;20202;-79
2021/05/07 05:49:03;;;;;;;28.20;14.80;;;5.20;99.90;;;;;;6700535;88;21026;-76
2021/05/07 05:59:04;;;;;;;24.33;13.27;;;5.40;99.90;;;;;;6703041;88;20241;-76
2021/05/07 06:09:05;;;;;;;26.00;12.85;;;5.70;99.90;;;;;;6704358;88;20199;-77
2021/05/07 06:19:06;;;;;;;19.80;10.13;;;6.50;99.90;;;;;;6699228;88;20213;-78
2021/05/07 06:29:06;;;;;;;20.48;11.35;;;6.90;99.90;;;;;;6705406;88;20242;-77
2021/05/07 06:39:07;;;;;;;22.42;11.88;;;6.90;99.90;;;;;;6722782;88;20381;-78
2021/05/07 06:49:08;;;;;;;21.15;11.05;;;6.80;99.90;;;;;;6722282;88;20209;-76
2021/05/07 06:59:09;;;;;;;21.83;11.60;;;6.80;99.90;;;;;;6726672;88;20199;-78
2021/05/07 07:09:10;;;;;;;22.20;11.25;;;6.70;99.90;;;;;;6723039;88;20326;-78
2021/05/07 07:19:10;;;;;;;22.48;11.50;;;6.50;99.90;;;;;;6720632;88;20178;-77
2021/05/07 07:29:11;;;;;;;23.38;12.15;;;5.80;99.90;;;;;;6719725;88;20208;-78
2021/05/07 07:39:17;;;;;;;22.62;11.65;;;5.70;99.90;;;;;;6720449;88;20193;-79
2021/05/07 07:49:17;;;;;;;20.63;9.30;;;5.30;99.90;;;;;;6714845;88;20259;-77
2021/05/07 07:59:18;;;;;;;11.95;6.25;;;5.30;99.90;;;;;;6707845;88;20194;-77
2021/05/07 08:09:18;;;;;;;6.30;3.78;;;6.20;99.90;;;;;;6705739;88;20398;-76
2021/05/07 08:19:19;;;;;;;7.97;4.45;;;7.00;99.90;;;;;;6709037;88;20179;-76
2021/05/07 08:29:20;;;;;;;8.95;4.90;;;7.00;99.90;;;;;;6706122;88;20717;-77
2021/05/07 08:39:20;;;;;;;5.93;3.67;;;7.30;99.90;;;;;;6703429;88;20187;-78
2021/05/07 08:49:23;;;;;;;9.05;5.20;;;7.70;99.90;;;;;;6704062;88;20315;-77
2021/05/07 08:59:24;;;;;;;9.38;6.12;;;7.60;99.90;;;;;;6707381;88;20204;-76
2021/05/07 09:09:26;;;;;;;12.57;7.80;;;6.40;99.90;;;;;;6707422;88;20178;-78
2021/05/07 09:19:31;;;;;;;7.95;5.18;;;5.70;99.90;;;;;;6707628;88;20210;-77
2021/05/07 09:29:32;;;;;;;10.55;6.30;;;5.30;99.90;;;;;;6705637;88;20218;-78
2021/05/07 09:39:36;;;;;;;10.48;7.28;;;5.60;99.90;;;;;;6706259;88;20294;-78
2021/05/07 09:49:37;;;;;;;10.48;6.80;;;6.20;99.90;;;;;;6706767;88;20252;-78
2021/05/07 09:59:37;;;;;;;11.60;7.75;;;6.30;99.90;;;;;;6702801;88;20256;-75
2021/05/07 10:09:38;;;;;;;12.77;7.87;;;6.30;99.90;;;;;;6706411;88;20183;-77
2021/05/07 10:19:43;;;;;;;8.63;5.75;;;7.10;99.90;;;;;;6707897;88;20208;-77
2021/05/07 10:29:56;;;;;;;8.85;6.35;;;7.20;99.90;;;;;;6709090;88;20179;-78
2021/05/07 10:39:56;;;;;;;7.12;4.80;;;7.50;99.90;;;;;;6703363;88;20316;-76
2021/05/07 10:49:57;;;;;;;6.72;4.93;;;9.20;99.90;;;;;;6703340;88;20226;-78
2021/05/07 11:00:02;;;;;;;6.68;5.00;;;9.60;99.90;;;;;;6702639;88;20236;-78
2021/05/07 11:10:08;;;;;;;6.53;4.13;;;11.20;99.90;;;;;;6701543;88;20186;-77
2021/05/07 11:20:09;;;;;;;;;;;9.80;99.90;;;;;;6703424;88;20583;-79
2021/05/07 11:30:12;;;;;;;5.28;3.35;;;9.50;99.90;;;;;;6713592;88;20082;-79
2021/05/07 11:40:16;;;;;;;4.55;2.70;;;9.30;99.90;;;;;;6712366;88;20701;-79
2021/05/07 11:50:19;;;;;;;4.78;2.60;;;11.70;99.90;;;;;;6711107;88;20262;-79
2021/05/07 12:00:20;;;;;;;2.83;1.70;;;10.30;99.90;;;;;;6711993;88;20199;-78
2021/05/07 12:10:27;;;;;;;2.75;1.60;;;10.50;99.90;;;;;;6708053;88;20268;-79
2021/05/07 12:20:29;;;;;;;5.15;2.00;;;10.30;99.90;;;;;;6711716;88;20237;-78
2021/05/07 12:30:31;;;;;;;2.92;1.45;;;11.80;99.00;;;;;;6711455;88;20318;-78
2021/05/07 12:40:32;;;;;;;3.60;1.75;;;10.60;99.90;;;;;;6712770;88;20189;-77
2021/05/07 12:50:32;;;;;;;4.25;1.90;;;11.30;98.90;;;;;;6708582;88;20186;-78
2021/05/07 13:00:33;;;;;;;3.78;1.70;;;11.50;99.90;;;;;;6712190;88;20195;-78
2021/05/07 13:10:34;;;;;;;2.62;1.70;;;13.20;94.30;;;;;;6710065;88;20336;-78
2021/05/07 13:20:37;;;;;;;4.15;2.10;;;12.60;92.30;;;;;;6725102;88;20159;-78
2021/05/07 13:30:38;;;;;;;3.60;1.90;;;14.50;91.20;;;;;;6722161;88;20166;-80
2021/05/07 13:40:39;;;;;;;3.47;2.00;;;15.10;86.70;;;;;;6725590;88;20219;-77
2021/05/07 13:50:39;;;;;;;3.00;1.70;;;14.30;84.20;;;;;;6725889;88;20496;-77
2021/05/07 14:00:40;;;;;;;5.47;1.80;;;13.10;83.00;;;;;;6727437;88;20228;-79
2021/05/07 14:10:41;;;;;;;2.80;1.90;;;12.10;83.90;;;;;;6724778;88;20167;-80
2021/05/07 14:20:41;;;;;;;3.03;1.75;;;13.40;83.90;;;;;;6730634;88;20676;-79
2021/05/07 14:30:42;;;;;;;2.93;2.03;;;13.90;76.60;;;;;;6727226;88;20264;-76
2021/05/07 14:40:42;;;;;;;3.08;2.30;;;14.80;70.40;;;;;;6716034;88;20248;-76
2021/05/07 14:50:43;;;;;;;3.25;2.37;;;14.40;72.80;;;;;;6703542;88;20274;-76
2021/05/07 15:00:43;;;;;;;4.65;2.75;;;12.80;72.30;;;;;;6707580;88;20177;-76
2021/05/07 15:10:44;;;;;;;3.70;2.23;;;12.40;76.90;;;;;;6735180;88;20275;-77
2021/05/07 15:20:47;;;;;;;4.40;2.55;;;13.70;74.50;;;;;;6729942;88;20533;-78
2021/05/07 15:30:47;;;;;;;3.50;2.30;;;14.20;72.90;;;;;;6729620;88;20239;-77
2021/05/07 15:40:48;;;;;;;3.10;2.58;;;14.10;72.70;;;;;;6729957;88;20688;-78
2021/05/07 15:50:48;;;;;;;2.92;2.22;;;13.80;74.70;;;;;;6726290;88;20266;-77
2021/05/07 16:00:49;;;;;;;3.55;2.33;;;15.00;69.30;;;;;;6728643;88;20167;-77
2021/05/07 16:10:52;;;;;;;3.20;2.20;;;14.00;70.40;;;;;;6722202;88;20199;-77
2021/05/07 16:20:53;;;;;;;6.15;2.20;;;13.90;70.30;;;;;;6727230;88;21117;-78
2021/05/07 16:30:53;;;;;;;5.10;3.67;;;14.80;68.80;;;;;;6718946;88;20287;-78
2021/05/07 16:40:54;;;;;;;4.65;2.95;;;15.10;68.80;;;;;;6704388;88;20194;-79
2021/05/07 16:50:54;;;;;;;3.72;2.80;;;13.70;68.60;;;;;;6702822;88;20263;-79
2021/05/07 17:00:55;;;;;;;3.45;2.90;;;13.30;72.60;;;;;;6702561;88;20186;-81
2021/05/07 17:10:57;;;;;;;3.63;2.63;;;13.10;71.80;;;;;;6701147;88;20308;-79
2021/05/07 17:20:57;;;;;;;5.10;2.92;;;12.90;74.60;;;;;;6698207;88;20640;-78
2021/05/07 17:30:58;;;;;;;3.03;2.60;;;13.00;74.90;;;;;;6701224;88;20612;-78
2021/05/07 17:40:58;;;;;;;3.65;2.80;;;14.70;70.30;;;;;;6701627;88;20253;-79
2021/05/07 17:50:59;;;;;;;4.80;2.67;;;14.10;70.90;;;;;;6700886;88;20201;-78
2021/05/07 18:00:59;;;;;;;3.17;2.62;;;15.20;69.80;;;;;;6701144;88;20201;-78
2021/05/07 18:11:00;;;;;;;3.72;2.50;;;15.70;68.50;;;;;;6701042;88;20239;-77
2021/05/07 18:21:01;;;;;;;5.25;3.12;;;13.20;73.20;;;;;;6701411;88;20233;-80
2021/05/07 18:31:01;;;;;;;6.50;3.72;;;12.10;78.60;;;;;;6701935;88;20216;-79
2021/05/07 18:41:02;;;;;;;7.53;4.28;;;12.20;79.20;;;;;;6703817;88;20211;-79
2021/05/07 18:51:03;;;;;;;5.30;3.97;;;11.90;82.90;;;;;;6703662;88;20671;-78
2021/05/07 19:01:03;;;;;;;5.65;3.30;;;11.20;91.70;;;;;;6703844;88;21023;-80
2021/05/07 19:11:04;;;;;;;6.55;3.83;;;10.60;93.40;;;;;;6703331;88;20211;-79
2021/05/07 19:21:06;;;;;;;7.70;4.80;;;10.40;96.80;;;;;;6705412;88;20193;-79
2021/05/07 19:31:07;;;;;;;7.50;3.90;;;9.90;99.90;;;;;;6704377;88;20846;-78
2021/05/07 19:41:07;;;;;;;4.85;3.22;;;9.60;99.90;;;;;;6706465;88;20296;-76
2021/05/07 19:51:09;;;;;;;4.62;2.87;;;9.20;99.90;;;;;;6705047;88;20277;-76
2021/05/07 20:01:09;;;;;;;4.28;2.97;;;8.70;99.90;;;;;;6704041;88;20322;-77
2021/05/07 20:11:10;;;;;;;5.55;3.40;;;8.60;99.90;;;;;;6703737;88;20695;-76
2021/05/07 20:21:11;;;;;;;5.70;4.00;;;8.40;99.90;;;;;;6704431;88;20762;-76
2021/05/07 20:31:15;;;;;;;5.87;3.78;;;8.30;99.90;;;;;;6701520;88;20231;-79
2021/05/07 20:41:16;;;;;;;6.15;3.87;;;8.10;99.90;;;;;;6704731;88;20186;-76
2021/05/07 20:51:16;;;;;;;5.83;3.63;;;7.90;99.90;;;;;;6705269;88;20190;-77
2021/05/07 21:01:17;;;;;;;5.93;3.40;;;7.90;99.90;;;;;;6704603;88;20507;-78
2021/05/07 21:11:18;;;;;;;5.25;3.75;;;7.70;99.90;;;;;;6705055;88;20195;-76
2021/05/07 21:21:18;;;;;;;5.43;3.87;;;7.50;99.90;;;;;;6704594;88;20190;-78
2021/05/07 21:31:19;;;;;;;5.50;3.75;;;7.30;99.90;;;;;;6704392;88;20522;-77
2021/05/07 21:41:20;;;;;;;6.30;4.20;;;7.00;99.90;;;;;;6703775;88;20293;-77
2021/05/07 21:51:20;;;;;;;7.07;3.92;;;6.70;99.90;;;;;;6702381;88;21904;-77
2021/05/07 22:01:21;;;;;;;5.85;4.22;;;6.70;99.90;;;;;;6683770;89;20265;-77
2021/05/07 22:11:21;;;;;;;8.32;5.25;;;6.70;99.90;;;;;;6704294;88;20992;-75
2021/05/07 22:21:22;;;;;;;6.78;4.72;;;6.30;99.90;;;;;;6705513;88;20215;-78
2021/05/07 22:31:22;;;;;;;6.87;4.87;;;5.90;99.90;;;;;;6702284;88;20788;-77
2021/05/07 22:41:23;;;;;;;8.25;5.35;;;5.90;99.90;;;;;;6721012;88;20650;-78
2021/05/07 22:51:23;;;;;;;6.67;4.80;;;5.90;99.90;;;;;;6723099;88;20202;-78
2021/05/07 23:01:24;;;;;;;6.12;4.50;;;5.90;99.90;;;;;;6719564;88;21055;-78
2021/05/07 23:11:25;;;;;;;6.93;4.37;;;5.60;99.90;;;;;;6722603;88;20266;-77
2021/05/07 23:21:25;;;;;;;6.55;4.45;;;5.50;99.90;;;;;;6723189;88;20232;-78
2021/05/07 23:31:26;;;;;;;6.40;4.40;;;5.30;99.90;;;;;;6718173;88;20204;-78
2021/05/07 23:41:26;;;;;;;7.70;4.50;;;5.00;99.90;;;;;;6714516;88;20219;-78
2021/05/07 23:51:27;;;;;;;7.20;4.12;;;5.00;99.90;;;;;;6723704;88;20191;-78
